Cherdyn, Russia
Current Conditions -  °F | °C
As of 5:30 PM on Monday 26 Jan 2015 (Local Time) from USPP Reporting Station
Clear Clear  
Wind Chill:   Ceiling: Unl
Heat Index: 10°   Visibility: 6mi
Dew Point:   Wind: 7mph
Humidity: 62%   Direction: 210°SSW
Pressure: 30.48"   Gusts: NA
Location:  60.4°N, 56.48°E
Report Text: USPP 261230Z 21003MPS CAVOK M12/M18 Q1032 21810355 NOSIG RMKQFE763/1018
Loading
Personal Weather Stations






























Interactive Weather Map New forecast layout! Learn more

10-Day Weather Forecast

Advertisements
Track Severe Weather on mobile